Time;durP1;ratioP1;P1;durP2;ratioP2;P2;SDS_P1;SDS_P2;PMS_P1;PMS_P2;Temp;Humidity;BMP_temperature;BMP_pressure;BME280_temperature;BME280_humidity;BME280_pressure;Samples;Min_cycle;Max_cycle;Signal;HPM_P1;HPM_P2
2022/11/05 00:10:44;;;;;;;;;;;15.00;62.20;;;;;;5023020;28;87036;-36
2022/11/05 00:18:38;;;;;;;;;;;14.90;62.20;;;;;;5024187;28;86967;-36
2022/11/05 00:21:03;;;;;;;;;;;14.90;62.20;;;;;;5022246;28;88148;-36
2022/11/05 00:26:13;;;;;;;;;;;15.00;62.20;;;;;;5022794;28;86930;-36
2022/11/05 00:28:42;;;;;;;;;;;14.90;62.20;;;;;;5027019;28;88019;-36
2022/11/05 00:31:11;;;;;;;;;;;14.90;62.20;;;;;;5028304;28;88165;-36
2022/11/05 00:33:38;;;;;;;;;;;14.90;62.20;;;;;;5028769;28;89637;-36
2022/11/05 00:36:04;;;;;;;;;;;14.90;62.20;;;;;;5027936;28;88343;-36
2022/11/05 00:38:30;;;;;;;;;;;14.90;62.20;;;;;;5028645;28;87069;-37
2022/11/05 00:40:55;;;;;;;;;;;14.90;62.20;;;;;;5031447;28;87087;-36
2022/11/05 00:46:05;;;;;;;;;;;14.90;62.20;;;;;;5029164;28;87050;-36
2022/11/05 00:51:14;;;;;;;;;;;14.90;62.20;;;;;;5028855;28;86921;-36
2022/11/05 00:53:40;;;;;;;;;;;14.90;62.20;;;;;;5029072;28;87179;-36
2022/11/05 00:56:05;;;;;;;;;;;14.90;62.20;;;;;;5027825;28;89036;-36
2022/11/05 00:58:31;;;;;;;;;;;14.90;62.30;;;;;;5028841;28;87104;-36
2022/11/05 01:00:57;;;;;;;;;;;14.90;62.30;;;;;;5028946;28;88384;-37
2022/11/05 01:03:25;;;;;;;;;;;14.90;62.20;;;;;;5031469;28;87898;-37
2022/11/05 01:05:52;;;;;;;;;;;14.90;62.20;;;;;;5028876;28;87733;-36
2022/11/05 01:08:18;;;;;;;;;;;14.90;62.20;;;;;;5028438;28;88079;-36
2022/11/05 01:10:45;;;;;;;;;;;14.90;62.20;;;;;;5028831;28;87119;-36
2022/11/05 01:13:11;;;;;;;;;;;14.90;62.20;;;;;;5029038;28;87602;-36
2022/11/05 01:15:37;;;;;;;;;;;14.90;62.30;;;;;;5028248;28;88425;-36
2022/11/05 01:18:03;;;;;;;;;;;14.90;62.20;;;;;;5028852;28;88029;-36
2022/11/05 01:20:28;;;;;;;;;;;14.90;62.30;;;;;;5027949;28;88401;-36
2022/11/05 01:22:54;;;;;;;;;;;14.90;62.30;;;;;;5028059;28;88370;-36
2022/11/05 01:25:19;;;;;;;;;;;14.90;62.30;;;;;;5031494;28;87139;-37
2022/11/05 01:27:45;;;;;;;;;;;14.90;62.30;;;;;;5028262;28;88146;-36
2022/11/05 01:30:11;;;;;;;;;;;14.90;62.30;;;;;;5028666;28;87188;-36
2022/11/05 01:32:37;;;;;;;;;;;14.90;62.30;;;;;;5028582;28;87266;-36
2022/11/05 01:35:03;;;;;;;;;;;14.90;62.30;;;;;;5027291;28;88034;-36
2022/11/05 01:37:29;;;;;;;;;;;14.90;62.30;;;;;;5028981;28;86332;-36
2022/11/05 01:39:54;;;;;;;;;;;14.90;62.40;;;;;;5025196;28;87084;-36
2022/11/05 01:42:21;;;;;;;;;;;14.90;62.40;;;;;;5024605;28;87207;-36
2022/11/05 01:44:51;;;;;;;;;;;14.90;62.40;;;;;;5024217;28;87955;-36
2022/11/05 01:47:32;;;;;;;;;;;14.90;62.40;;;;;;5027103;28;91156;-36
2022/11/05 01:49:59;;;;;;;;;;;14.80;62.30;;;;;;5024656;28;87170;-36
2022/11/05 01:52:25;;;;;;;;;;;14.90;62.40;;;;;;5024802;28;87447;-36
2022/11/05 01:54:51;;;;;;;;;;;14.80;62.40;;;;;;5024299;28;88079;-36
2022/11/05 01:57:17;;;;;;;;;;;14.80;62.40;;;;;;5024862;28;86895;-36
2022/11/05 01:59:44;;;;;;;;;;;14.80;62.40;;;;;;5024782;28;87013;-36
2022/11/05 02:02:10;;;;;;;;;;;14.80;62.40;;;;;;5024643;28;87816;-36
2022/11/05 02:04:38;;;;;;;;;;;14.80;62.40;;;;;;5024764;28;87153;-36
2022/11/05 02:07:04;;;;;;;;;;;14.80;62.50;;;;;;5026946;28;88807;-36
2022/11/05 02:09:42;;;;;;;;;;;14.80;62.50;;;;;;5024129;28;88074;-36
2022/11/05 02:12:08;;;;;;;;;;;14.80;62.50;;;;;;5024521;28;88646;-36
2022/11/05 02:14:33;;;;;;;;;;;14.80;62.50;;;;;;5023886;28;87947;-36
2022/11/05 02:17:05;;;;;;;;;;;14.80;62.50;;;;;;5024623;28;87372;-36
2022/11/05 02:19:30;;;;;;;;;;;14.80;62.50;;;;;;5024453;28;87420;-36
2022/11/05 02:21:56;;;;;;;;;;;14.80;62.50;;;;;;5024026;28;88086;-36
2022/11/05 02:24:42;;;;;;;;;;;14.80;62.50;;;;;;5024465;28;86929;-36
2022/11/05 02:27:13;;;;;;;;;;;14.80;62.60;;;;;;5001984;28;87838;-36
2022/11/05 02:29:52;;;;;;;;;;;14.80;62.60;;;;;;5026623;28;88994;-36
2022/11/05 02:32:17;;;;;;;;;;;14.80;62.60;;;;;;5024465;28;87394;-36
2022/11/05 02:34:46;;;;;;;;;;;14.80;62.60;;;;;;5022643;28;88914;-36
2022/11/05 02:37:30;;;;;;;;;;;14.80;62.60;;;;;;5024190;28;87457;-36
2022/11/05 02:40:09;;;;;;;;;;;14.80;62.60;;;;;;5023966;28;87309;-36
2022/11/05 02:42:43;;;;;;;;;;;14.80;62.60;;;;;;5023747;28;88168;-36
2022/11/05 02:45:27;;;;;;;;;;;14.70;62.60;;;;;;5023810;28;87031;-36
2022/11/05 02:47:58;;;;;;;;;;;14.80;62.60;;;;;;5024159;28;87365;-36
2022/11/05 02:50:38;;;;;;;;;;;14.70;62.60;;;;;;5023300;28;88148;-36
2022/11/05 02:53:09;;;;;;;;;;;14.70;62.60;;;;;;5026942;28;86431;-36
2022/11/05 02:55:40;;;;;;;;;;;14.80;62.70;;;;;;5023594;28;88162;-36
2022/11/05 02:58:06;;;;;;;;;;;14.70;62.60;;;;;;5023815;28;87096;-36
2022/11/05 03:00:44;;;;;;;;;;;14.70;62.60;;;;;;5023348;28;87963;-36
2022/11/05 03:03:22;;;;;;;;;;;14.70;62.60;;;;;;5023602;28;88138;-36
2022/11/05 03:05:57;;;;;;;;;;;14.70;62.70;;;;;;5023591;28;87211;-36
2022/11/05 03:08:37;;;;;;;;;;;14.70;62.70;;;;;;5023727;28;87524;-36
2022/11/05 03:11:23;;;;;;;;;;;14.70;62.70;;;;;;5022934;28;88181;-36
2022/11/05 03:14:12;;;;;;;;;;;14.70;62.80;;;;;;5023108;28;87128;-36
2022/11/05 03:16:39;;;;;;;;;;;14.70;62.70;;;;;;5020215;28;87542;-36
2022/11/05 03:19:14;;;;;;;;;;;14.70;62.70;;;;;;5024045;28;86355;-36
2022/11/05 03:21:43;;;;;;;;;;;14.70;62.70;;;;;;5023612;28;87503;-36
2022/11/05 03:24:29;;;;;;;;;;;14.70;62.70;;;;;;5023146;28;88336;-36
2022/11/05 03:26:57;;;;;;;;;;;14.70;62.70;;;;;;5022258;28;87908;-36
2022/11/05 03:29:34;;;;;;;;;;;14.70;62.70;;;;;;5023197;28;88367;-36
2022/11/05 03:32:02;;;;;;;;;;;14.70;63.40;;;;;;5022918;28;88047;-36
2022/11/05 03:34:34;;;;;;;;;;;14.60;62.70;;;;;;5023217;28;87337;-36
2022/11/05 03:37:00;;;;;;;;;;;14.70;62.80;;;;;;5023049;28;87452;-36
2022/11/05 03:39:28;;;;;;;;;;;14.60;62.70;;;;;;5025796;28;88104;-36
2022/11/05 03:41:55;;;;;;;;;;;14.60;62.70;;;;;;5022734;28;88810;-36
2022/11/05 03:44:26;;;;;;;;;;;14.60;62.80;;;;;;5023292;28;87196;-36
2022/11/05 03:46:54;;;;;;;;;;;14.60;62.70;;;;;;5022786;28;86951;-37
2022/11/05 03:49:31;;;;;;;;;;;14.60;62.70;;;;;;5023096;28;87280;-36
2022/11/05 03:52:26;;;;;;;;;;;14.60;62.70;;;;;;5022075;28;88866;-36
2022/11/05 03:54:51;;;;;;;;;;;14.60;62.80;;;;;;5013164;28;87550;-36
2022/11/05 03:57:20;;;;;;;;;;;14.60;62.80;;;;;;5022917;28;87383;-36
2022/11/05 03:59:47;;;;;;;;;;;14.60;62.80;;;;;;5022544;28;88009;-36
2022/11/05 04:02:13;;;;;;;;;;;14.60;62.70;;;;;;5025072;28;87116;-36
2022/11/05 04:04:39;;;;;;;;;;;14.60;62.80;;;;;;5022422;28;87885;-36
2022/11/05 04:15:16;;;;;;;;;;;14.60;62.80;;;;;;5022764;28;87535;-36
2022/11/05 04:17:42;;;;;;;;;;;14.60;62.80;;;;;;5022130;28;87938;-36
2022/11/05 04:25:46;;;;;;;;;;;14.60;62.90;;;;;;5022405;28;87052;-36
2022/11/05 04:28:12;;;;;;;;;;;14.50;62.80;;;;;;5022455;28;87430;-36
2022/11/05 04:30:38;;;;;;;;;;;14.50;62.80;;;;;;5022475;28;87787;-36
2022/11/05 04:33:14;;;;;;;;;;;14.50;62.80;;;;;;5022106;28;88123;-36
2022/11/05 04:35:40;;;;;;;;;;;14.50;62.80;;;;;;5022268;28;86491;-36
2022/11/05 04:38:07;;;;;;;;;;;14.50;62.70;;;;;;5022565;28;86750;-36
2022/11/05 04:40:33;;;;;;;;;;;14.50;62.70;;;;;;5021940;28;87790;-37
2022/11/05 04:42:59;;;;;;;;;;;14.50;62.80;;;;;;5021094;28;88037;-36
2022/11/05 04:45:26;;;;;;;;;;;14.50;62.80;;;;;;5024997;28;88404;-36
2022/11/05 04:47:51;;;;;;;;;;;14.50;62.80;;;;;;5022359;28;87015;-36
2022/11/05 04:50:17;;;;;;;;;;;14.50;62.80;;;;;;5022066;28;87934;-37
2022/11/05 04:52:42;;;;;;;;;;;14.50;62.80;;;;;;5022079;28;87439;-36
2022/11/05 04:55:08;;;;;;;;;;;14.50;62.80;;;;;;5022300;28;87106;-36
2022/11/05 04:57:33;;;;;;;;;;;14.50;62.80;;;;;;5022409;28;87399;-37
2022/11/05 04:59:59;;;;;;;;;;;14.50;62.80;;;;;;5022088;28;87488;-36
2022/11/05 05:02:24;;;;;;;;;;;14.50;62.80;;;;;;5022085;28;87083;-36
2022/11/05 05:04:50;;;;;;;;;;;14.50;62.80;;;;;;5022215;28;87003;-36
2022/11/05 05:07:15;;;;;;;;;;;14.50;62.80;;;;;;5024052;28;88948;-36
2022/11/05 05:09:41;;;;;;;;;;;14.50;62.90;;;;;;5022101;28;87553;-36
2022/11/05 05:12:06;;;;;;;;;;;14.50;62.80;;;;;;5021808;28;88093;-36
2022/11/05 05:14:32;;;;;;;;;;;14.40;62.80;;;;;;5022070;28;87415;-36
2022/11/05 05:16:58;;;;;;;;;;;14.50;62.80;;;;;;5025528;28;87329;-36
2022/11/05 05:19:24;;;;;;;;;;;14.50;62.80;;;;;;5025112;28;88012;-36
2022/11/05 05:21:49;;;;;;;;;;;14.50;62.80;;;;;;5025352;28;87115;-36
2022/11/05 05:24:17;;;;;;;;;;;14.50;62.80;;;;;;5025949;28;87572;-36
2022/11/05 05:26:47;;;;;;;;;;;14.50;62.80;;;;;;5024930;28;88529;-36
2022/11/05 05:29:12;;;;;;;;;;;14.40;62.80;;;;;;5028185;28;87083;-36
2022/11/05 05:31:38;;;;;;;;;;;14.40;62.80;;;;;;5024281;28;88188;-36
2022/11/05 05:34:04;;;;;;;;;;;14.50;62.80;;;;;;5024855;28;87139;-36
2022/11/05 05:36:30;;;;;;;;;;;14.40;62.80;;;;;;5024301;28;89389;-36
2022/11/05 05:38:57;;;;;;;;;;;14.40;62.80;;;;;;5024563;28;89142;-36
2022/11/05 05:41:23;;;;;;;;;;;14.40;62.80;;;;;;5024984;28;87097;-36
2022/11/05 05:43:48;;;;;;;;;;;14.40;62.80;;;;;;5025052;28;87509;-36
2022/11/05 05:46:15;;;;;;;;;;;14.40;62.80;;;;;;5024808;28;88089;-36
2022/11/05 05:48:41;;;;;;;;;;;14.40;62.80;;;;;;5025319;28;86286;-36
2022/11/05 05:51:07;;;;;;;;;;;14.40;62.80;;;;;;5027541;28;86895;-36
2022/11/05 05:53:33;;;;;;;;;;;14.40;62.80;;;;;;5024414;28;86994;-36
2022/11/05 05:55:59;;;;;;;;;;;14.40;62.80;;;;;;5024077;28;87897;-36
2022/11/05 05:58:25;;;;;;;;;;;14.40;62.80;;;;;;5024246;28;88091;-36
2022/11/05 06:00:52;;;;;;;;;;;14.40;62.80;;;;;;5024649;28;87120;-36
2022/11/05 06:03:17;;;;;;;;;;;14.40;62.80;;;;;;5024759;28;87436;-36
2022/11/05 06:05:43;;;;;;;;;;;14.40;62.80;;;;;;5024300;28;88100;-36
2022/11/05 06:08:08;;;;;;;;;;;14.40;62.80;;;;;;5024695;28;87149;-36
2022/11/05 06:10:34;;;;;;;;;;;14.40;62.80;;;;;;5024735;28;86905;-36
2022/11/05 06:13:00;;;;;;;;;;;14.40;62.80;;;;;;5027358;28;87361;-36
2022/11/05 06:15:25;;;;;;;;;;;14.40;62.80;;;;;;5024428;28;87057;-36
2022/11/05 06:17:51;;;;;;;;;;;14.40;62.80;;;;;;5024125;28;88094;-36
2022/11/05 06:20:16;;;;;;;;;;;14.40;62.80;;;;;;5023677;28;88037;-36
2022/11/05 06:22:42;;;;;;;;;;;14.40;62.80;;;;;;5024465;28;88400;-36
2022/11/05 06:25:08;;;;;;;;;;;14.40;62.70;;;;;;5023433;28;89731;-36
2022/11/05 06:27:35;;;;;;;;;;;14.40;62.70;;;;;;5024239;28;87093;-36
2022/11/05 06:30:01;;;;;;;;;;;14.40;62.70;;;;;;5024087;28;89016;-36
2022/11/05 06:32:27;;;;;;;;;;;14.40;62.70;;;;;;5026544;28;89412;-36
2022/11/05 06:34:52;;;;;;;;;;;14.40;62.70;;;;;;5023790;28;87386;-36
2022/11/05 06:37:18;;;;;;;;;;;14.40;62.70;;;;;;5024284;28;87317;-36
2022/11/05 06:39:43;;;;;;;;;;;14.40;62.70;;;;;;5024147;28;86814;-36
2022/11/05 06:42:09;;;;;;;;;;;14.40;63.30;;;;;;5023806;28;87646;-36
2022/11/05 06:44:34;;;;;;;;;;;14.40;62.70;;;;;;5022736;28;88574;-36
2022/11/05 06:47:00;;;;;;;;;;;14.40;62.70;;;;;;5024007;28;87184;-36
2022/11/05 06:49:25;;;;;;;;;;;14.40;62.70;;;;;;5024171;28;87281;-36
2022/11/05 06:51:51;;;;;;;;;;;14.50;62.60;;;;;;5023580;28;88067;-36
2022/11/05 06:54:16;;;;;;;;;;;14.50;62.70;;;;;;5026796;28;87690;-36
2022/11/05 06:56:42;;;;;;;;;;;14.50;62.60;;;;;;5023505;28;88212;-36
2022/11/05 06:59:07;;;;;;;;;;;14.40;62.60;;;;;;5023732;28;87118;-36
2022/11/05 07:01:34;;;;;;;;;;;14.40;62.60;;;;;;5022736;28;90827;-36
2022/11/05 07:03:59;;;;;;;;;;;14.40;62.60;;;;;;5023189;28;89266;-36
2022/11/05 07:06:25;;;;;;;;;;;14.40;62.60;;;;;;5023826;28;86902;-36
2022/11/05 07:08:51;;;;;;;;;;;14.40;62.60;;;;;;5023090;28;87824;-36
2022/11/05 07:11:16;;;;;;;;;;;14.50;62.60;;;;;;5023365;28;87314;-36
2022/11/05 07:13:42;;;;;;;;;;;14.40;62.60;;;;;;5023297;28;87201;-36
2022/11/05 07:16:08;;;;;;;;;;;14.50;62.60;;;;;;5026009;28;87482;-36
2022/11/05 07:18:33;;;;;;;;;;;14.40;62.60;;;;;;5023673;28;87111;-36
2022/11/05 07:20:59;;;;;;;;;;;14.40;62.60;;;;;;5023483;28;87561;-36
2022/11/05 07:23:25;;;;;;;;;;;14.50;62.60;;;;;;5023114;28;87996;-36
2022/11/05 07:25:50;;;;;;;;;;;14.50;62.60;;;;;;5024153;28;86335;-36
2022/11/05 07:28:16;;;;;;;;;;;14.50;62.60;;;;;;5023322;28;87035;-36
2022/11/05 07:30:41;;;;;;;;;;;14.50;62.60;;;;;;5022767;28;88730;-36
2022/11/05 07:33:07;;;;;;;;;;;14.50;62.60;;;;;;5022621;28;88091;-36
2022/11/05 07:35:33;;;;;;;;;;;14.50;62.60;;;;;;5022521;28;90082;-36
2022/11/05 07:37:58;;;;;;;;;;;14.40;62.50;;;;;;5024942;28;87125;-36
2022/11/05 07:40:24;;;;;;;;;;;14.50;62.60;;;;;;5023243;28;87555;-36
2022/11/05 07:42:51;;;;;;;;;;;14.50;62.60;;;;;;5022434;28;88234;-36
2022/11/05 07:45:17;;;;;;;;;;;14.50;62.50;;;;;;5023049;28;87091;-36
2022/11/05 07:47:46;;;;;;;;;;;14.50;62.50;;;;;;5023209;28;87497;-36
2022/11/05 07:50:12;;;;;;;;;;;14.50;62.50;;;;;;5023033;28;88802;-36
2022/11/05 07:52:38;;;;;;;;;;;14.50;62.50;;;;;;5022816;28;87093;-36
2022/11/05 07:55:03;;;;;;;;;;;14.60;62.50;;;;;;5023004;28;87676;-36
2022/11/05 07:57:29;;;;;;;;;;;14.60;62.50;;;;;;5021750;28;89031;-36
2022/11/05 07:59:55;;;;;;;;;;;14.60;62.50;;;;;;5025810;28;87072;-36
2022/11/05 08:02:20;;;;;;;;;;;14.60;62.50;;;;;;5022630;28;88112;-36
2022/11/05 08:04:46;;;;;;;;;;;14.60;62.50;;;;;;5023104;28;87170;-36
2022/11/05 08:07:11;;;;;;;;;;;14.60;62.50;;;;;;5022775;28;86947;-36
2022/11/05 08:09:37;;;;;;;;;;;14.60;62.50;;;;;;5022449;28;88069;-36
2022/11/05 08:12:02;;;;;;;;;;;14.60;62.40;;;;;;5022799;28;87306;-36
2022/11/05 08:14:28;;;;;;;;;;;14.60;62.40;;;;;;5022834;28;88125;-36
2022/11/05 08:16:55;;;;;;;;;;;14.60;62.40;;;;;;5022498;28;88063;-36
2022/11/05 08:19:21;;;;;;;;;;;14.60;62.30;;;;;;5022750;28;87135;-36
2022/11/05 08:21:46;;;;;;;;;;;14.60;62.30;;;;;;5024723;28;87883;-36
2022/11/05 08:24:12;;;;;;;;;;;14.60;62.30;;;;;;5022723;28;87068;-36
2022/11/05 08:26:37;;;;;;;;;;;14.60;62.20;;;;;;5022536;28;87243;-36
2022/11/05 08:29:03;;;;;;;;;;;14.60;62.30;;;;;;5022139;28;87835;-36
2022/11/05 08:31:29;;;;;;;;;;;14.60;62.30;;;;;;5022588;28;87521;-36
2022/11/05 08:33:55;;;;;;;;;;;14.60;62.30;;;;;;5022614;28;88195;-36
2022/11/05 08:36:21;;;;;;;;;;;14.60;62.20;;;;;;5021916;28;87803;-36
2022/11/05 08:38:46;;;;;;;;;;;14.60;62.20;;;;;;5022923;28;86407;-36
2022/11/05 08:41:12;;;;;;;;;;;14.60;62.30;;;;;;5025149;28;87064;-36
2022/11/05 08:43:37;;;;;;;;;;;14.70;62.40;;;;;;5022269;28;87311;-36
2022/11/05 08:46:03;;;;;;;;;;;14.70;62.40;;;;;;5021599;28;87996;-36
2022/11/05 08:48:28;;;;;;;;;;;14.60;63.00;;;;;;5022422;28;89333;-36
2022/11/05 08:50:54;;;;;;;;;;;14.70;62.50;;;;;;5025942;28;86868;-36
2022/11/05 08:53:19;;;;;;;;;;;14.60;62.40;;;;;;5025503;28;88250;-36
2022/11/05 08:55:46;;;;;;;;;;;14.60;62.50;;;;;;5025288;28;88426;-36
2022/11/05 08:58:14;;;;;;;;;;;14.70;62.60;;;;;;5025413;28;87346;-36
2022/11/05 09:00:39;;;;;;;;;;;14.60;62.50;;;;;;5025497;28;88880;-36
2022/11/05 09:03:06;;;;;;;;;;;14.70;62.60;;;;;;5028735;28;87858;-36
2022/11/05 09:05:38;;;;;;;;;;;14.70;62.60;;;;;;5025764;28;87039;-36
2022/11/05 09:08:04;;;;;;;;;;;14.70;62.60;;;;;;5025335;28;88372;-36
2022/11/05 09:10:30;;;;;;;;;;;14.60;62.50;;;;;;5024710;28;87989;-36
2022/11/05 09:12:55;;;;;;;;;;;14.70;62.60;;;;;;5025515;28;87540;-36
2022/11/05 09:15:22;;;;;;;;;;;14.70;62.60;;;;;;5023661;28;91380;-36
2022/11/05 09:17:47;;;;;;;;;;;14.70;62.60;;;;;;5025251;28;87107;-36
2022/11/05 09:20:13;;;;;;;;;;;14.70;62.60;;;;;;5025602;28;87366;-36
2022/11/05 09:22:38;;;;;;;;;;;14.70;62.70;;;;;;5025089;28;88353;-36
2022/11/05 09:25:04;;;;;;;;;;;14.70;62.70;;;;;;5028026;28;87198;-37
2022/11/05 09:27:30;;;;;;;;;;;14.70;62.70;;;;;;5025276;28;87665;-36
2022/11/05 09:29:56;;;;;;;;;;;14.70;62.70;;;;;;5025356;28;87132;-36
2022/11/05 09:32:22;;;;;;;;;;;14.70;62.70;;;;;;5025462;28;87445;-36
2022/11/05 09:34:48;;;;;;;;;;;14.70;62.70;;;;;;5023409;28;90442;-36
2022/11/05 09:37:14;;;;;;;;;;;14.70;62.80;;;;;;5025494;28;87024;-36
2022/11/05 09:39:40;;;;;;;;;;;14.70;62.80;;;;;;5024888;28;89162;-36
2022/11/05 09:42:11;;;;;;;;;;;14.70;62.70;;;;;;5024261;28;88138;-36
2022/11/05 09:44:39;;;;;;;;;;;14.70;62.70;;;;;;5024941;28;87110;-36
2022/11/05 09:47:09;;;;;;;;;;;14.70;62.80;;;;;;5027573;28;87424;-36
2022/11/05 09:49:40;;;;;;;;;;;14.70;62.80;;;;;;5025031;28;87042;-37
2022/11/05 09:52:25;;;;;;;;;;;14.70;62.80;;;;;;5025303;28;87438;-36
2022/11/05 09:54:51;;;;;;;;;;;14.70;62.90;;;;;;5023843;28;88010;-36
2022/11/05 09:57:26;;;;;;;;;;;14.80;62.90;;;;;;5024713;28;87006;-36
2022/11/05 09:59:53;;;;;;;;;;;14.80;62.90;;;;;;5023646;28;87995;-36
2022/11/05 10:02:27;;;;;;;;;;;14.70;62.90;;;;;;5024208;28;88186;-38
2022/11/05 10:04:55;;;;;;;;;;;14.80;62.90;;;;;;5024648;28;87143;-36
2022/11/05 10:07:23;;;;;;;;;;;14.70;62.90;;;;;;5024645;28;87577;-36
2022/11/05 10:09:51;;;;;;;;;;;14.70;62.90;;;;;;5027181;28;87951;-36
2022/11/05 10:12:16;;;;;;;;;;;14.80;62.90;;;;;;5024888;28;88119;-36
2022/11/05 10:14:45;;;;;;;;;;;14.80;62.90;;;;;;5024042;28;88113;-36
2022/11/05 10:17:23;;;;;;;;;;;14.80;62.90;;;;;;5024883;28;86343;-36
2022/11/05 10:20:00;;;;;;;;;;;14.80;63.10;;;;;;5024277;28;88295;-36
2022/11/05 10:22:26;;;;;;;;;;;14.80;63.00;;;;;;5023845;28;89345;-36
2022/11/05 10:24:52;;;;;;;;;;;14.80;63.00;;;;;;5023904;28;88106;-36
2022/11/05 10:27:22;;;;;;;;;;;14.80;63.10;;;;;;5024319;28;88319;-36
2022/11/05 10:29:48;;;;;;;;;;;14.80;63.10;;;;;;5024008;28;88058;-36
2022/11/05 10:32:17;;;;;;;;;;;14.80;63.10;;;;;;5027094;28;86980;-36
2022/11/05 10:34:43;;;;;;;;;;;14.80;63.00;;;;;;5023363;28;87747;-36
2022/11/05 10:37:09;;;;;;;;;;;14.80;63.10;;;;;;5024420;28;86951;-36
2022/11/05 10:39:35;;;;;;;;;;;14.80;63.10;;;;;;5024208;28;87304;-36
2022/11/05 10:42:03;;;;;;;;;;;14.80;63.10;;;;;;5024091;28;87323;-36
2022/11/05 10:44:32;;;;;;;;;;;14.80;63.10;;;;;;5023986;28;87114;-36
2022/11/05 10:47:05;;;;;;;;;;;14.80;63.10;;;;;;5023975;28;87110;-36
2022/11/05 10:49:40;;;;;;;;;;;14.80;63.10;;;;;;5022762;28;90426;-36
2022/11/05 10:52:34;;;;;;;;;;;14.90;63.20;;;;;;5027017;28;87131;-36
2022/11/05 10:55:01;;;;;;;;;;;14.90;63.10;;;;;;5014010;28;88182;-36
2022/11/05 10:57:30;;;;;;;;;;;14.90;63.10;;;;;;5023506;28;87126;-36
2022/11/05 11:00:11;;;;;;;;;;;14.90;63.10;;;;;;5023828;28;88622;-36
2022/11/05 11:02:36;;;;;;;;;;;14.90;63.10;;;;;;5023647;28;88175;-36
2022/11/05 11:05:02;;;;;;;;;;;14.90;63.20;;;;;;5023806;28;87147;-36
2022/11/05 11:07:27;;;;;;;;;;;14.90;63.10;;;;;;5024109;28;87810;-36
2022/11/05 11:09:53;;;;;;;;;;;14.90;63.10;;;;;;5023300;28;88132;-36
2022/11/05 11:12:26;;;;;;;;;;;14.90;63.10;;;;;;5023656;28;87135;-36
2022/11/05 11:15:03;;;;;;;;;;;14.90;63.10;;;;;;5025499;28;87954;-37
2022/11/05 11:17:29;;;;;;;;;;;15.00;63.20;;;;;;5023320;28;87138;-36
2022/11/05 11:20:18;;;;;;;;;;;14.90;63.10;;;;;;5023311;28;88436;-36
2022/11/05 11:23:04;;;;;;;;;;;14.90;63.10;;;;;;5023209;28;88549;-36
2022/11/05 11:25:44;;;;;;;;;;;14.90;63.10;;;;;;5010477;28;87863;-36
2022/11/05 11:28:16;;;;;;;;;;;14.90;63.10;;;;;;5023304;28;89017;-36
2022/11/05 11:30:46;;;;;;;;;;;15.00;63.10;;;;;;5022935;28;88429;-36
2022/11/05 11:33:21;;;;;;;;;;;15.00;63.20;;;;;;5023689;28;87503;-36
2022/11/05 11:35:46;;;;;;;;;;;15.00;63.20;;;;;;5023180;28;87145;-36
2022/11/05 11:38:13;;;;;;;;;;;15.00;63.20;;;;;;5026049;28;88253;-36
2022/11/05 11:40:39;;;;;;;;;;;15.00;63.80;;;;;;5022718;28;87807;-36
2022/11/05 11:43:06;;;;;;;;;;;15.00;63.20;;;;;;5022766;28;88299;-36
2022/11/05 11:45:45;;;;;;;;;;;15.00;63.20;;;;;;5023024;28;87102;-36
2022/11/05 11:48:15;;;;;;;;;;;15.00;63.20;;;;;;5022826;28;88653;-36
2022/11/05 11:50:41;;;;;;;;;;;15.00;63.10;;;;;;5022728;28;88197;-36
2022/11/05 11:53:19;;;;;;;;;;;15.00;63.20;;;;;;5023080;28;87129;-36
2022/11/05 11:55:53;;;;;;;;;;;15.00;63.20;;;;;;5022778;28;87446;-36
2022/11/05 11:58:19;;;;;;;;;;;15.00;63.20;;;;;;5023050;28;87469;-36
2022/11/05 12:00:46;;;;;;;;;;;15.10;63.20;;;;;;5025870;28;87065;-36
2022/11/05 12:03:18;;;;;;;;;;;15.00;63.20;;;;;;5022324;28;90361;-36
2022/11/05 12:05:54;;;;;;;;;;;15.10;63.20;;;;;;5022207;28;88087;-36
2022/11/05 12:08:25;;;;;;;;;;;15.10;63.10;;;;;;5022561;28;88438;-36
2022/11/05 12:10:58;;;;;;;;;;;15.10;63.20;;;;;;5022473;28;87662;-36
2022/11/05 12:13:29;;;;;;;;;;;15.10;63.20;;;;;;5022557;28;87612;-36
2022/11/05 12:16:26;;;;;;;;;;;15.10;63.20;;;;;;5022790;28;87264;-36
2022/11/05 12:18:58;;;;;;;;;;;15.10;63.20;;;;;;4998315;28;88052;-36
2022/11/05 12:21:39;;;;;;;;;;;15.10;63.20;;;;;;5022764;28;86939;-36
2022/11/05 12:24:10;;;;;;;;;;;15.10;63.20;;;;;;5025181;28;87378;-36
2022/11/05 12:27:14;;;;;;;;;;;15.10;63.20;;;;;;5022629;28;87166;-36
2022/11/05 12:29:51;;;;;;;;;;;15.10;63.20;;;;;;4980261;28;87120;-36
2022/11/05 12:32:35;;;;;;;;;;;15.10;63.20;;;;;;4979375;28;89193;-36
2022/11/05 12:35:06;;;;;;;;;;;15.10;63.10;;;;;;5007835;28;87254;-36
2022/11/05 12:37:40;;;;;;;;;;;15.10;63.20;;;;;;5022146;28;87330;-36
2022/11/05 12:40:08;;;;;;;;;;;15.10;63.10;;;;;;5021912;28;88451;-36
2022/11/05 12:42:37;;;;;;;;;;;15.20;63.20;;;;;;5022127;28;87207;-36
2022/11/05 12:45:19;;;;;;;;;;;15.20;63.20;;;;;;5025087;28;87412;-36
2022/11/05 12:47:51;;;;;;;;;;;15.10;63.20;;;;;;5022463;28;86942;-36
2022/11/05 12:50:23;;;;;;;;;;;15.20;63.20;;;;;;5022461;28;87418;-36
2022/11/05 12:52:52;;;;;;;;;;;15.20;63.20;;;;;;5021874;28;88325;-36
2022/11/05 12:55:22;;;;;;;;;;;15.20;63.20;;;;;;5022234;28;87139;-36
2022/11/05 12:57:50;;;;;;;;;;;15.20;63.20;;;;;;5021524;28;87991;-36
2022/11/05 13:00:19;;;;;;;;;;;15.20;63.20;;;;;;5021690;28;88163;-36
2022/11/05 13:02:45;;;;;;;;;;;15.20;63.20;;;;;;5021870;28;87072;-36
2022/11/05 13:05:12;;;;;;;;;;;15.20;63.20;;;;;;5022342;28;87428;-36
2022/11/05 13:07:40;;;;;;;;;;;15.20;63.20;;;;;;5024551;28;88597;-36
2022/11/05 13:10:12;;;;;;;;;;;15.20;63.20;;;;;;5021869;28;87462;-36
2022/11/05 13:12:38;;;;;;;;;;;15.20;63.10;;;;;;5021815;28;88139;-36
2022/11/05 13:15:09;;;;;;;;;;;15.20;63.10;;;;;;5022078;28;86468;-36
2022/11/05 13:17:40;;;;;;;;;;;15.20;63.10;;;;;;5021913;28;87052;-36
2022/11/05 13:20:14;;;;;;;;;;;15.20;63.10;;;;;;5021577;28;87914;-36
2022/11/05 13:22:57;;;;;;;;;;;15.20;63.10;;;;;;5021278;28;88013;-36
2022/11/05 13:25:34;;;;;;;;;;;15.20;63.10;;;;;;5021742;28;88344;-36
2022/11/05 13:28:19;;;;;;;;;;;15.20;63.20;;;;;;5021118;28;88220;-36
2022/11/05 13:30:46;;;;;;;;;;;15.20;63.20;;;;;;5024531;28;86976;-36
2022/11/05 13:33:26;;;;;;;;;;;15.20;63.20;;;;;;5021522;28;88203;-36
2022/11/05 13:39:00;;;;;;;;;;;15.20;63.10;;;;;;5025403;28;86877;-36
2022/11/05 13:41:28;;;;;;;;;;;15.20;63.10;;;;;;5025304;28;87131;-36
2022/11/05 13:43:54;;;;;;;;;;;15.20;63.10;;;;;;5024971;28;87037;-36
2022/11/05 13:46:25;;;;;;;;;;;15.20;63.10;;;;;;5024954;28;87471;-36
2022/11/05 13:48:51;;;;;;;;;;;15.20;63.20;;;;;;5022384;28;92423;-36
2022/11/05 13:51:35;;;;;;;;;;;15.20;63.20;;;;;;5024725;28;87114;-36
2022/11/05 13:54:00;;;;;;;;;;;15.20;63.20;;;;;;5027534;28;87281;-36
2022/11/05 13:56:29;;;;;;;;;;;15.30;63.20;;;;;;5024697;28;87075;-36
2022/11/05 13:58:54;;;;;;;;;;;15.20;63.20;;;;;;5024543;28;88920;-36
2022/11/05 14:01:20;;;;;;;;;;;15.30;63.20;;;;;;5024343;28;87098;-36
2022/11/05 14:03:50;;;;;;;;;;;15.30;63.20;;;;;;5024832;28;87120;-36
2022/11/05 14:06:22;;;;;;;;;;;15.30;63.80;;;;;;5025304;28;87161;-36
2022/11/05 14:08:48;;;;;;;;;;;15.30;63.20;;;;;;5024610;28;88037;-36
2022/11/05 14:11:32;;;;;;;;;;;15.30;63.20;;;;;;5024581;28;87137;-36
2022/11/05 14:13:59;;;;;;;;;;;15.30;63.20;;;;;;5023907;28;88034;-36
2022/11/05 14:16:28;;;;;;;;;;;15.30;63.20;;;;;;5026872;28;88185;-36
2022/11/05 14:19:12;;;;;;;;;;;15.30;63.10;;;;;;5024135;28;89087;-37
2022/11/05 14:22:03;;;;;;;;;;;15.30;63.20;;;;;;5024142;28;87981;-36
2022/11/05 14:24:41;;;;;;;;;;;15.30;63.10;;;;;;5007326;28;87126;-36
2022/11/05 14:27:09;;;;;;;;;;;15.30;63.20;;;;;;5024400;28;87424;-36
2022/11/05 14:29:38;;;;;;;;;;;15.30;63.20;;;;;;5023846;28;88349;-36
2022/11/05 14:32:24;;;;;;;;;;;15.30;63.20;;;;;;5024808;28;86183;-36
2022/11/05 14:34:53;;;;;;;;;;;15.30;63.20;;;;;;5022736;28;88054;-36
2022/11/05 14:37:23;;;;;;;;;;;15.30;63.20;;;;;;5024095;28;88081;-36
2022/11/05 14:39:49;;;;;;;;;;;15.30;63.20;;;;;;5026407;28;87945;-36
2022/11/05 14:42:16;;;;;;;;;;;15.30;63.20;;;;;;5024061;28;87966;-36
2022/11/05 14:44:56;;;;;;;;;;;15.30;63.20;;;;;;5023829;28;87111;-36
2022/11/05 14:47:24;;;;;;;;;;;15.30;63.20;;;;;;5023456;28;87418;-36
2022/11/05 14:49:51;;;;;;;;;;;15.30;63.30;;;;;;5023496;28;88349;-36
2022/11/05 14:52:18;;;;;;;;;;;15.30;63.20;;;;;;5023828;28;87134;-36
2022/11/05 14:54:46;;;;;;;;;;;15.30;63.20;;;;;;5023891;28;87350;-36
2022/11/05 14:57:32;;;;;;;;;;;15.30;63.20;;;;;;5023877;28;86570;-36
2022/11/05 14:59:59;;;;;;;;;;;15.30;63.20;;;;;;5026201;28;87125;-36
2022/11/05 15:02:30;;;;;;;;;;;15.30;63.10;;;;;;5023154;28;89193;-36
2022/11/05 15:05:14;;;;;;;;;;;15.30;63.10;;;;;;5023282;28;88000;-36
2022/11/05 15:07:39;;;;;;;;;;;15.30;63.10;;;;;;5023876;28;88313;-36